createdAt,value
2018-09-30T00:01:03.509Z,4.49
2018-09-30T00:02:08.027Z,4.51
2018-09-30T00:03:12.398Z,4.53
2018-09-30T00:04:16.923Z,4.53
2018-09-30T00:05:21.508Z,4.55
2018-09-30T00:06:27.302Z,4.55
2018-09-30T00:07:33.421Z,4.58
2018-09-30T00:08:40.606Z,4.59
2018-09-30T00:09:45.356Z,4.60
2018-09-30T00:10:49.788Z,4.47
2018-09-30T00:11:55.773Z,4.50
2018-09-30T00:13:00.308Z,4.53
2018-09-30T00:14:06.713Z,4.60
2018-09-30T00:15:11.201Z,4.56
2018-09-30T00:16:15.654Z,4.49
2018-09-30T00:17:20.061Z,4.52
2018-09-30T00:18:24.472Z,4.53
2018-09-30T00:19:29.026Z,4.55
2018-09-30T00:20:33.888Z,4.58
2018-09-30T00:21:38.350Z,4.46
2018-09-30T00:22:42.745Z,4.41
2018-09-30T00:23:52.556Z,4.35
2018-09-30T00:25:01.982Z,4.23
2018-09-30T00:26:11.662Z,4.10
2018-09-30T00:27:18.905Z,4.09
2018-09-30T00:28:23.447Z,4.12
2018-09-30T00:29:30.286Z,4.05
2018-09-30T00:30:34.743Z,4.00
2018-09-30T00:31:39.727Z,3.87
2018-09-30T00:32:44.520Z,3.73
2018-09-30T00:33:54.122Z,3.61
2018-09-30T00:35:00.470Z,3.61
2018-09-30T00:36:04.958Z,3.60
2018-09-30T00:37:09.389Z,3.59
2018-09-30T00:38:13.833Z,3.63
2018-09-30T00:39:19.427Z,3.63
2018-09-30T00:40:23.830Z,3.60
2018-09-30T00:41:28.266Z,3.47
2018-09-30T00:42:32.778Z,3.42
2018-09-30T00:43:38.096Z,3.37
2018-09-30T00:44:45.801Z,3.34
2018-09-30T00:45:51.646Z,3.29
2018-09-30T00:46:56.056Z,3.23
2018-09-30T00:48:01.883Z,3.24
2018-09-30T00:49:07.278Z,3.24
2018-09-30T00:50:11.781Z,3.22
2018-09-30T00:51:16.238Z,3.16
2018-09-30T00:52:20.980Z,3.19
2018-09-30T00:53:26.195Z,3.18
2018-09-30T00:54:30.653Z,3.18
2018-09-30T00:55:36.678Z,3.18
2018-09-30T00:56:41.090Z,3.08
2018-09-30T00:57:45.513Z,3.08
2018-09-30T00:58:52.970Z,3.14
2018-09-30T00:59:57.398Z,3.22
2018-09-30T01:01:01.865Z,3.36
2018-09-30T01:02:06.358Z,3.42
2018-09-30T01:03:10.841Z,3.49
2018-09-30T01:04:15.926Z,3.56
2018-09-30T01:05:20.367Z,3.64
2018-09-30T01:06:24.785Z,3.68
2018-09-30T01:07:29.224Z,3.74
2018-09-30T01:08:34.291Z,3.73
2018-09-30T01:09:38.763Z,3.62
2018-09-30T01:10:44.040Z,3.59
2018-09-30T01:11:49.032Z,3.54
2018-09-30T01:12:53.414Z,3.52
2018-09-30T01:13:57.809Z,3.49
2018-09-30T01:15:02.208Z,3.36
2018-09-30T01:16:06.690Z,3.28
2018-09-30T01:17:11.407Z,3.34
2018-09-30T01:18:15.858Z,3.32
2018-09-30T01:19:20.304Z,3.35
2018-09-30T01:20:24.734Z,3.38
2018-09-30T01:21:29.319Z,3.41
2018-09-30T01:22:33.932Z,3.48
2018-09-30T01:23:38.666Z,3.42
2018-09-30T01:24:44.481Z,3.25
2018-09-30T01:25:48.901Z,3.14
2018-09-30T01:26:57.882Z,3.14
2018-09-30T01:28:03.617Z,3.19
2018-09-30T01:29:08.115Z,3.24
2018-09-30T01:30:13.960Z,3.25
2018-09-30T01:31:19.052Z,3.30
2018-09-30T01:32:23.473Z,3.32
2018-09-30T01:33:28.553Z,3.34
2018-09-30T01:34:35.494Z,3.38
2018-09-30T01:35:40.425Z,3.36
2018-09-30T01:36:45.109Z,3.42
2018-09-30T01:37:49.550Z,3.48
2018-09-30T01:38:54.010Z,3.51
2018-09-30T01:39:58.453Z,3.52
2018-09-30T01:41:02.951Z,3.51
2018-09-30T01:42:07.501Z,3.50
2018-09-30T01:43:12.269Z,3.53
2018-09-30T01:44:16.700Z,3.57
2018-09-30T01:45:21.115Z,3.63
2018-09-30T01:46:25.562Z,3.60
2018-09-30T01:47:30.171Z,3.59
2018-09-30T01:48:34.862Z,3.59
2018-09-30T01:49:39.567Z,3.57
2018-09-30T01:50:44.196Z,3.59
2018-09-30T01:51:56.227Z,3.58
2018-09-30T01:53:01.175Z,3.52
2018-09-30T01:54:05.813Z,3.53
2018-09-30T01:55:10.506Z,3.57
2018-09-30T01:56:15.346Z,3.60
2018-09-30T01:57:19.905Z,3.61
2018-09-30T01:58:24.521Z,3.63
2018-09-30T01:59:29.326Z,3.61
2018-09-30T02:00:33.885Z,3.56
2018-09-30T02:01:38.434Z,3.55
2018-09-30T02:02:43.453Z,3.56
2018-09-30T02:03:48.122Z,3.56
2018-09-30T02:04:52.629Z,3.58
2018-09-30T02:05:57.131Z,3.52
2018-09-30T02:07:01.729Z,3.51
2018-09-30T02:08:06.527Z,3.48
2018-09-30T02:09:11.672Z,3.35
2018-09-30T02:10:16.278Z,3.33
2018-09-30T02:11:20.713Z,3.29
2018-09-30T02:12:25.174Z,3.28
2018-09-30T02:13:29.718Z,3.31
2018-09-30T02:14:34.139Z,3.36
2018-09-30T02:15:38.962Z,3.37
2018-09-30T02:16:43.385Z,3.37
2018-09-30T02:17:47.925Z,3.32
2018-09-30T02:18:52.590Z,3.21
2018-09-30T02:19:56.984Z,3.03
2018-09-30T02:21:02.008Z,2.93
2018-09-30T02:22:06.806Z,2.92
2018-09-30T02:23:11.248Z,2.93
2018-09-30T02:24:15.766Z,2.93
2018-09-30T02:25:20.165Z,2.97
2018-09-30T02:26:24.601Z,3.03
2018-09-30T02:27:29.018Z,3.07
2018-09-30T02:28:33.728Z,3.10
2018-09-30T02:29:38.127Z,3.14
2018-09-30T02:30:43.524Z,3.18
2018-09-30T02:31:47.931Z,3.18
2018-09-30T02:32:52.377Z,3.19
2018-09-30T02:33:56.813Z,3.17
2018-09-30T02:35:01.544Z,3.15
2018-09-30T02:36:06.709Z,3.12
2018-09-30T02:37:11.120Z,2.96
2018-09-30T02:38:15.521Z,3.00
2018-09-30T02:39:19.958Z,3.04
2018-09-30T02:40:24.385Z,3.05
2018-09-30T02:41:29.090Z,3.04
2018-09-30T02:42:33.492Z,3.02
2018-09-30T02:43:37.961Z,2.97
2018-09-30T02:44:42.565Z,2.99
2018-09-30T02:45:46.981Z,2.92
2018-09-30T02:46:51.386Z,2.73
2018-09-30T02:47:57.311Z,2.58
2018-09-30T02:49:01.730Z,2.57
2018-09-30T02:50:06.239Z,2.59
2018-09-30T02:51:10.610Z,2.63
2018-09-30T02:52:15.065Z,2.63
2018-09-30T02:53:19.482Z,2.64
2018-09-30T02:54:24.198Z,2.51
2018-09-30T02:55:28.597Z,2.38
2018-09-30T02:56:33.310Z,2.31
2018-09-30T02:57:37.739Z,2.31
2018-09-30T02:58:42.189Z,2.36
2018-09-30T02:59:46.629Z,2.43
2018-09-30T03:00:51.365Z,2.53
2018-09-30T03:01:55.782Z,2.57
2018-09-30T03:03:00.223Z,2.52
2018-09-30T03:04:04.740Z,2.46
2018-09-30T03:05:11.254Z,2.48
2018-09-30T03:06:20.946Z,2.48
2018-09-30T03:07:30.321Z,2.50
2018-09-30T03:08:39.919Z,2.52
2018-09-30T03:09:44.653Z,2.56
2018-09-30T03:10:49.214Z,2.50
2018-09-30T03:11:53.638Z,2.33
2018-09-30T03:12:58.384Z,2.29
2018-09-30T03:14:02.966Z,2.31
2018-09-30T03:15:07.412Z,2.34
2018-09-30T03:16:11.862Z,2.35
2018-09-30T03:17:16.288Z,2.42
2018-09-30T03:18:24.563Z,2.46
2018-09-30T03:19:29.954Z,2.50
2018-09-30T03:20:34.375Z,2.47
2018-09-30T03:21:39.618Z,2.51
2018-09-30T03:22:44.068Z,2.55
2018-09-30T03:23:48.490Z,2.54
2018-09-30T03:24:52.890Z,2.49
2018-09-30T03:25:58.704Z,2.44
2018-09-30T03:27:03.121Z,2.38
2018-09-30T03:28:07.861Z,2.42
2018-09-30T03:29:12.353Z,2.45
2018-09-30T03:30:16.765Z,2.49
2018-09-30T03:31:21.265Z,2.49
2018-09-30T03:32:25.999Z,2.49
2018-09-30T03:33:30.451Z,2.52
2018-09-30T03:34:34.849Z,2.49
2018-09-30T03:35:39.270Z,2.52
2018-09-30T03:36:43.697Z,2.56
2018-09-30T03:37:48.133Z,2.59
2018-09-30T03:38:52.857Z,2.57
2018-09-30T03:39:57.745Z,2.58
2018-09-30T03:41:02.210Z,2.60
2018-09-30T03:42:06.621Z,2.55
2018-09-30T03:43:11.986Z,2.49
2018-09-30T03:44:16.417Z,2.40
2018-09-30T03:45:21.258Z,2.37
2018-09-30T03:46:25.681Z,2.24
2018-09-30T03:47:30.189Z,2.16
2018-09-30T03:48:35.461Z,2.19
2018-09-30T03:49:39.893Z,2.26
2018-09-30T03:50:44.338Z,2.30
2018-09-30T03:51:49.091Z,2.22
2018-09-30T03:52:53.519Z,2.22
2018-09-30T03:53:57.966Z,2.26
2018-09-30T03:55:02.375Z,2.29
2018-09-30T03:56:06.794Z,2.16
2018-09-30T03:57:11.212Z,2.11
2018-09-30T03:58:16.651Z,2.12
2018-09-30T03:59:21.085Z,2.16
2018-09-30T04:00:25.569Z,2.12
2018-09-30T04:01:30.022Z,2.12
2018-09-30T04:02:35.617Z,2.12
2018-09-30T04:03:40.170Z,2.08
2018-09-30T04:04:44.875Z,2.11
2018-09-30T04:05:49.323Z,2.14
2018-09-30T04:06:53.755Z,2.13
2018-09-30T04:07:58.552Z,2.18
2018-09-30T04:09:03.931Z,2.21
2018-09-30T04:10:09.409Z,2.24
2018-09-30T04:11:15.250Z,2.21
2018-09-30T04:12:19.765Z,2.17
2018-09-30T04:13:24.221Z,2.01
2018-09-30T04:14:28.651Z,2.02
2018-09-30T04:15:33.070Z,2.04
2018-09-30T04:16:37.524Z,2.08
2018-09-30T04:17:42.279Z,2.00
2018-09-30T04:18:46.761Z,1.84
2018-09-30T04:19:51.208Z,1.55
2018-09-30T04:20:55.670Z,1.36
2018-09-30T04:22:00.081Z,1.25
2018-09-30T04:23:04.557Z,1.28
2018-09-30T04:24:11.804Z,1.35
2018-09-30T04:25:16.280Z,1.41
2018-09-30T04:26:20.733Z,1.49
2018-09-30T04:27:25.217Z,1.60
2018-09-30T04:28:29.815Z,1.65
2018-09-30T04:29:34.236Z,1.68
2018-09-30T04:30:38.997Z,1.73
2018-09-30T04:31:43.449Z,1.81
2018-09-30T04:32:47.953Z,1.85
2018-09-30T04:33:52.460Z,1.90
2018-09-30T04:34:56.893Z,1.93
2018-09-30T04:36:01.339Z,1.91
2018-09-30T04:37:06.505Z,1.91
2018-09-30T04:38:10.953Z,1.88
2018-09-30T04:39:15.470Z,1.88
2018-09-30T04:40:19.941Z,1.85
2018-09-30T04:41:24.437Z,1.78
2018-09-30T04:42:28.917Z,1.64
2018-09-30T04:43:33.628Z,1.52
2018-09-30T04:44:38.089Z,1.40
2018-09-30T04:45:42.501Z,1.35
2018-09-30T04:46:46.925Z,1.39
2018-09-30T04:47:51.404Z,1.47
2018-09-30T04:48:55.876Z,1.54
2018-09-30T04:50:00.769Z,1.59
2018-09-30T04:51:05.205Z,1.63
2018-09-30T04:52:09.657Z,1.69
2018-09-30T04:53:14.088Z,1.70
2018-09-30T04:54:18.547Z,1.58
2018-09-30T04:55:23.000Z,1.56
2018-09-30T04:56:27.749Z,1.56
2018-09-30T04:57:32.198Z,1.58
2018-09-30T04:58:36.893Z,1.60
2018-09-30T04:59:41.317Z,1.65
2018-09-30T05:00:45.738Z,1.64
2018-09-30T05:01:50.178Z,1.63
2018-09-30T05:02:54.885Z,1.61
2018-09-30T05:03:59.365Z,1.61
2018-09-30T05:05:03.956Z,1.61
2018-09-30T05:06:08.447Z,1.55
2018-09-30T05:07:13.033Z,1.42
2018-09-30T05:08:17.442Z,1.42
2018-09-30T05:09:22.166Z,1.39
2018-09-30T05:10:26.578Z,1.42
2018-09-30T05:11:30.982Z,1.36
2018-09-30T05:12:35.398Z,1.23
2018-09-30T05:13:39.898Z,1.10
2018-09-30T05:14:44.424Z,1.04
2018-09-30T05:15:49.201Z,1.04
2018-09-30T05:16:53.614Z,1.09
2018-09-30T05:17:58.250Z,1.13
2018-09-30T05:19:02.997Z,1.16
2018-09-30T05:20:07.575Z,1.18
2018-09-30T05:21:12.024Z,1.10
2018-09-30T05:22:17.833Z,1.06
2018-09-30T05:23:22.239Z,1.10
2018-09-30T05:24:26.658Z,1.05
2018-09-30T05:25:31.133Z,1.04
2018-09-30T05:26:35.594Z,0.88
2018-09-30T05:27:40.021Z,0.77
2018-09-30T05:28:44.794Z,0.77
2018-09-30T05:29:49.230Z,0.82
2018-09-30T05:30:53.741Z,0.93
2018-09-30T05:44:55.677Z,1.22
2018-09-30T05:46:00.135Z,1.25
2018-09-30T05:47:04.569Z,1.30
2018-09-30T05:48:09.620Z,1.34
2018-09-30T05:49:14.123Z,1.42
2018-09-30T05:50:18.896Z,1.38
2018-09-30T05:51:24.799Z,1.24
2018-09-30T05:52:29.258Z,1.21
2018-09-30T05:53:33.667Z,1.19
2018-09-30T05:54:38.077Z,1.25
2018-09-30T05:55:43.490Z,1.39
2018-09-30T05:56:51.927Z,1.58
2018-09-30T05:57:56.383Z,1.79
2018-09-30T05:59:00.829Z,2.03
2018-09-30T06:00:05.551Z,2.24
2018-09-30T06:01:10.066Z,2.40
2018-09-30T06:02:14.986Z,2.56
2018-09-30T06:03:19.812Z,2.69
2018-09-30T06:04:24.238Z,2.89
2018-09-30T06:05:28.762Z,2.91
2018-09-30T06:06:33.181Z,2.87
2018-09-30T06:07:37.654Z,2.92
2018-09-30T06:08:42.085Z,3.01
2018-09-30T06:09:46.791Z,3.19
2018-09-30T06:10:51.215Z,3.28
2018-09-30T06:11:55.681Z,3.40
2018-09-30T06:13:00.142Z,3.45
2018-09-30T06:14:05.411Z,3.67
2018-09-30T06:15:11.472Z,3.79
2018-09-30T06:16:17.014Z,3.75
2018-09-30T06:17:21.417Z,3.80
2018-09-30T06:18:28.834Z,3.87
2018-09-30T06:19:34.611Z,3.98
2018-09-30T06:20:39.401Z,4.24
2018-09-30T06:21:43.921Z,4.38
2018-09-30T06:22:48.729Z,4.73
2018-09-30T06:23:53.173Z,4.91
2018-09-30T06:24:57.595Z,5.00
2018-09-30T06:26:02.081Z,5.00
2018-09-30T06:27:06.573Z,5.12
2018-09-30T06:28:11.921Z,5.31
2018-09-30T06:29:16.800Z,5.54
2018-09-30T06:30:21.293Z,5.68
2018-09-30T06:31:25.718Z,6.02
2018-09-30T06:32:30.152Z,6.33
2018-09-30T06:33:34.546Z,6.55
2018-09-30T06:34:39.057Z,6.78
2018-09-30T06:35:43.821Z,7.04
2018-09-30T06:36:48.313Z,7.24
2018-09-30T06:37:53.943Z,7.65
2018-09-30T06:38:58.580Z,8.10
2018-09-30T06:40:02.976Z,8.16
2018-09-30T06:41:07.766Z,-144.44
2018-09-30T06:42:12.501Z,8.53
2018-09-30T06:43:17.085Z,8.87
2018-09-30T06:44:22.935Z,9.70
2018-09-30T06:45:27.403Z,10.11
2018-09-30T06:46:31.884Z,10.54
2018-09-30T06:47:36.752Z,10.96
2018-09-30T06:48:41.498Z,11.17
2018-09-30T06:49:45.962Z,11.57
2018-09-30T06:50:50.533Z,11.65
2018-09-30T06:51:54.993Z,11.84
2018-09-30T06:53:00.229Z,11.93
2018-09-30T06:54:04.831Z,11.80
2018-09-30T06:55:13.457Z,12.00
2018-09-30T06:56:17.957Z,12.85
2018-09-30T06:57:24.406Z,13.42
2018-09-30T06:58:28.838Z,13.44
2018-09-30T06:59:37.231Z,13.98
2018-09-30T07:00:42.783Z,13.76
2018-09-30T07:01:47.717Z,13.57
2018-09-30T07:02:54.280Z,13.88
2018-09-30T07:03:58.747Z,14.18
2018-09-30T07:05:04.242Z,14.02
2018-09-30T07:06:09.254Z,13.83
2018-09-30T07:07:14.243Z,14.11
2018-09-30T07:08:18.778Z,14.97
2018-09-30T07:09:23.290Z,15.52
2018-09-30T07:10:28.513Z,16.05
2018-09-30T07:11:33.377Z,16.61
2018-09-30T07:12:40.498Z,17.30
2018-09-30T07:13:46.486Z,17.87
2018-09-30T07:14:52.673Z,18.43
2018-09-30T07:15:58.364Z,18.58
2018-09-30T07:17:04.865Z,18.85
2018-09-30T07:18:10.467Z,18.35
2018-09-30T07:19:15.322Z,17.77
2018-09-30T07:20:21.665Z,17.40
2018-09-30T07:21:27.562Z,17.07
2018-09-30T07:22:33.486Z,17.03
2018-09-30T07:23:38.025Z,16.85
2018-09-30T07:24:43.682Z,16.89
2018-09-30T07:25:48.943Z,16.84
2018-09-30T07:26:55.143Z,16.87
2018-09-30T07:27:59.841Z,16.44
2018-09-30T07:29:05.210Z,16.40
2018-09-30T07:30:10.049Z,15.61
2018-09-30T07:31:14.484Z,15.23
2018-09-30T07:32:19.038Z,15.43
2018-09-30T07:33:24.074Z,14.70
2018-09-30T07:34:28.869Z,14.98
2018-09-30T07:35:34.695Z,15.47
2018-09-30T07:36:39.773Z,15.95
2018-09-30T07:37:44.267Z,16.25
2018-09-30T07:38:48.824Z,16.00
2018-09-30T07:39:55.798Z,16.51
2018-09-30T07:41:03.141Z,16.97
2018-09-30T07:42:09.214Z,17.66
2018-09-30T07:43:14.944Z,17.77
2018-09-30T07:44:19.569Z,17.75
2018-09-30T07:45:25.033Z,18.01
2018-09-30T07:46:30.828Z,18.82
2018-09-30T07:47:36.010Z,19.66
2018-09-30T07:48:40.623Z,20.41
2018-09-30T07:49:46.322Z,20.98
2018-09-30T07:50:50.832Z,21.54
2018-09-30T07:51:56.234Z,21.83
2018-09-30T07:53:01.072Z,21.63
2018-09-30T07:54:05.622Z,21.25
2018-09-30T07:55:10.134Z,20.80
2018-09-30T07:56:14.699Z,20.37
2018-09-30T07:57:19.149Z,20.10
2018-09-30T07:58:24.554Z,19.85
2018-09-30T07:59:29.452Z,19.81
2018-09-30T08:00:33.930Z,20.05
2018-09-30T08:01:38.489Z,20.22
2018-09-30T08:02:43.046Z,19.94
2018-09-30T08:03:48.354Z,19.90
2018-09-30T08:04:52.854Z,19.69
2018-09-30T08:05:57.703Z,19.92
2018-09-30T08:07:02.398Z,20.26
2018-09-30T08:08:07.536Z,20.56
2018-09-30T08:09:12.193Z,20.59
2018-09-30T08:10:16.865Z,20.68
2018-09-30T08:11:21.426Z,20.09
2018-09-30T08:12:26.352Z,20.44
2018-09-30T08:13:31.668Z,19.77
2018-09-30T08:14:36.416Z,19.23
2018-09-30T08:15:40.865Z,19.48
2018-09-30T08:16:46.284Z,18.94
2018-09-30T08:17:52.422Z,19.54
2018-09-30T08:18:58.025Z,19.50
2018-09-30T08:20:02.562Z,20.58
2018-09-30T08:21:07.097Z,21.36
2018-09-30T08:22:11.538Z,21.93
2018-09-30T08:23:18.331Z,22.48
2018-09-30T08:24:24.769Z,22.83
2018-09-30T08:25:29.227Z,23.40
2018-09-30T08:26:36.883Z,23.45
2018-09-30T08:27:42.841Z,23.51
2018-09-30T08:28:48.560Z,23.75
2018-09-30T08:29:54.581Z,23.85
2018-09-30T08:30:59.811Z,24.06
2018-09-30T08:32:04.675Z,24.07
2018-09-30T08:33:10.325Z,24.70
2018-09-30T08:34:15.940Z,25.07
2018-09-30T08:35:20.570Z,24.98
2018-09-30T08:36:25.123Z,25.13
2018-09-30T08:37:36.134Z,25.19
2018-09-30T08:38:42.587Z,25.80
2018-09-30T08:39:50.139Z,26.64
2018-09-30T08:41:00.402Z,26.71
2018-09-30T08:42:05.123Z,26.65
2018-09-30T08:43:10.168Z,26.87
2018-09-30T08:44:14.936Z,27.10
2018-09-30T08:45:19.785Z,27.45
2018-09-30T08:46:24.965Z,27.69
2018-09-30T08:47:30.216Z,28.18
2018-09-30T08:48:36.380Z,28.62
2018-09-30T08:49:41.771Z,28.45
2018-09-30T08:50:53.395Z,29.48
2018-09-30T08:51:59.567Z,28.87
2018-09-30T08:53:05.867Z,30.15
2018-09-30T08:54:11.495Z,29.52
2018-09-30T08:55:16.156Z,27.34
2018-09-30T08:56:22.676Z,27.18
2018-09-30T08:57:35.326Z,27.81
2018-09-30T08:58:40.891Z,28.73
2018-09-30T08:59:46.398Z,29.88
2018-09-30T09:00:53.724Z,30.85
2018-09-30T09:01:58.710Z,31.26
2018-09-30T09:03:05.453Z,31.35
2018-09-30T09:04:11.457Z,31.24
2018-09-30T09:05:16.477Z,30.92
2018-09-30T09:06:21.544Z,30.30
2018-09-30T09:07:28.893Z,29.68
2018-09-30T09:08:40.625Z,29.46
2018-09-30T09:09:46.151Z,29.36
2018-09-30T09:10:53.680Z,30.09
2018-09-30T09:12:00.729Z,29.88
2018-09-30T09:13:06.706Z,29.37
2018-09-30T09:14:16.505Z,28.63
2018-09-30T09:15:22.227Z,28.25
2018-09-30T09:16:28.914Z,28.58
2018-09-30T09:17:33.833Z,28.78
2018-09-30T09:18:38.797Z,28.86
2018-09-30T09:19:43.477Z,29.43
2018-09-30T09:20:48.791Z,29.98
2018-09-30T09:21:53.689Z,28.47
2018-09-30T09:22:59.026Z,29.04
2018-09-30T09:24:03.893Z,29.31
2018-09-30T09:25:09.862Z,28.04
2018-09-30T09:26:14.624Z,27.97
2018-09-30T09:27:20.285Z,27.89
2018-09-30T09:28:26.195Z,27.12
2018-09-30T09:29:31.214Z,27.31
2018-09-30T09:30:36.410Z,26.63
2018-09-30T09:31:42.156Z,27.45
2018-09-30T09:32:48.391Z,28.57
2018-09-30T09:33:53.266Z,27.72
2018-09-30T09:34:58.431Z,28.05
2018-09-30T09:36:03.551Z,28.36
2018-09-30T09:37:08.865Z,28.31
2018-09-30T09:38:13.722Z,27.75
2018-09-30T09:39:18.528Z,28.47
2018-09-30T09:40:24.373Z,28.67
2018-09-30T09:41:30.287Z,27.44
2018-09-30T09:42:35.318Z,27.49
2018-09-30T09:43:40.562Z,27.56
2018-09-30T09:44:46.643Z,26.32
2018-09-30T09:45:52.485Z,25.36
2018-09-30T09:46:57.526Z,24.99
2018-09-30T09:48:02.333Z,24.59
2018-09-30T09:49:07.189Z,25.81
2018-09-30T09:50:12.964Z,27.29
2018-09-30T09:51:17.580Z,28.33
2018-09-30T09:52:24.873Z,29.18
2018-09-30T09:53:29.472Z,28.54
2018-09-30T09:54:34.275Z,28.78
2018-09-30T09:55:39.659Z,29.10
2018-09-30T09:56:46.937Z,29.26
2018-09-30T09:57:51.554Z,28.45
2018-09-30T09:58:56.475Z,27.15
2018-09-30T10:00:03.021Z,25.94
2018-09-30T10:01:08.775Z,26.29
2018-09-30T10:02:16.539Z,27.52
2018-09-30T10:03:22.281Z,27.43
2018-09-30T10:04:28.267Z,26.63
2018-09-30T10:05:33.371Z,25.56
2018-09-30T10:06:39.833Z,26.27
2018-09-30T10:07:45.493Z,27.41
2018-09-30T10:08:51.938Z,27.89
2018-09-30T10:09:57.849Z,28.35
2018-09-30T10:11:02.555Z,28.80
2018-09-30T10:12:08.458Z,29.12
2018-09-30T10:13:14.350Z,28.17
2018-09-30T10:14:21.873Z,27.49
2018-09-30T10:15:26.891Z,27.22
2018-09-30T10:16:32.515Z,25.76
2018-09-30T10:17:37.816Z,25.76
2018-09-30T10:18:43.887Z,25.98
2018-09-30T10:19:49.870Z,25.95
2018-09-30T10:20:56.624Z,25.51
2018-09-30T10:22:03.294Z,26.47
2018-09-30T10:23:08.792Z,26.98
2018-09-30T10:24:14.186Z,28.20
2018-09-30T10:25:20.342Z,28.75
2018-09-30T10:26:24.885Z,28.15
2018-09-30T10:27:30.435Z,27.97
2018-09-30T10:28:40.104Z,26.69
2018-09-30T10:29:44.684Z,25.17
2018-09-30T10:30:49.346Z,24.01
2018-09-30T10:44:11.533Z,20.83
2018-09-30T10:45:17.303Z,21.36
2018-09-30T10:46:22.687Z,21.78
2018-09-30T10:47:27.598Z,21.95
2018-09-30T10:48:34.686Z,22.40
2018-09-30T10:49:39.788Z,22.50
2018-09-30T10:50:45.085Z,22.04
2018-09-30T10:51:50.237Z,21.34
2018-09-30T10:52:55.960Z,21.74
2018-09-30T10:54:01.799Z,22.21
2018-09-30T10:55:07.874Z,22.13
2018-09-30T10:56:13.232Z,22.68
2018-09-30T10:57:18.752Z,22.90
2018-09-30T10:58:23.802Z,23.53
2018-09-30T10:59:31.370Z,24.14
2018-09-30T11:00:37.712Z,23.85
2018-09-30T11:01:42.905Z,24.02
2018-09-30T11:02:48.317Z,24.05
2018-09-30T11:03:52.830Z,24.28
2018-09-30T11:04:58.042Z,24.89
2018-09-30T11:06:02.985Z,25.12
2018-09-30T11:07:08.490Z,25.73
2018-09-30T11:08:14.451Z,26.15
2018-09-30T11:09:19.354Z,25.67
2018-09-30T11:10:24.392Z,25.45
2018-09-30T11:11:29.785Z,23.99
2018-09-30T11:12:34.380Z,24.96
2018-09-30T11:13:38.995Z,25.22
2018-09-30T11:14:46.989Z,24.40
2018-09-30T11:15:51.450Z,24.13
2018-09-30T11:16:57.717Z,22.82
2018-09-30T11:18:04.747Z,22.53
2018-09-30T11:19:09.415Z,22.84
2018-09-30T11:20:17.314Z,22.98
2018-09-30T11:21:27.353Z,22.97
2018-09-30T11:22:33.414Z,23.07
2018-09-30T11:23:38.233Z,22.81
2018-09-30T11:24:43.498Z,21.47
2018-09-30T11:25:49.306Z,21.57
2018-09-30T11:26:55.751Z,20.79
2018-09-30T11:28:01.113Z,20.71
2018-09-30T11:29:07.784Z,20.63
2018-09-30T11:30:14.371Z,21.34
2018-09-30T11:31:20.588Z,22.53
2018-09-30T11:32:26.196Z,23.35
2018-09-30T11:33:31.826Z,23.83
2018-09-30T11:34:39.462Z,23.60
2018-09-30T11:35:45.173Z,23.47
2018-09-30T11:36:51.362Z,23.96
2018-09-30T11:37:57.331Z,24.32
2018-09-30T11:39:04.431Z,24.73
2018-09-30T11:40:08.947Z,24.50
2018-09-30T11:41:13.727Z,24.39
2018-09-30T11:42:19.220Z,23.76
2018-09-30T11:43:25.680Z,23.51
2018-09-30T11:44:34.141Z,24.25
2018-09-30T11:45:39.521Z,24.60
2018-09-30T11:46:46.017Z,23.68
2018-09-30T11:47:54.705Z,23.15
2018-09-30T11:48:59.571Z,22.81
2018-09-30T11:50:04.274Z,22.52
2018-09-30T11:51:09.209Z,22.36
2018-09-30T11:52:13.679Z,22.81
2018-09-30T11:53:18.342Z,23.07
2018-09-30T11:54:23.064Z,23.75
2018-09-30T11:55:28.219Z,23.92
2018-09-30T11:56:33.591Z,24.07
2018-09-30T11:57:39.564Z,22.90
2018-09-30T11:58:45.564Z,22.71
2018-09-30T11:59:50.339Z,22.58
2018-09-30T12:00:55.574Z,22.82
2018-09-30T12:02:00.074Z,22.57
2018-09-30T12:03:04.971Z,23.31
2018-09-30T12:04:10.111Z,23.73
2018-09-30T12:05:16.300Z,24.30
2018-09-30T12:06:21.362Z,24.08
2018-09-30T12:07:27.532Z,23.13
2018-09-30T12:08:35.118Z,22.18
2018-09-30T12:09:49.212Z,22.05
2018-09-30T12:10:54.468Z,21.51
2018-09-30T12:11:59.417Z,21.44
2018-09-30T12:13:04.347Z,21.71
2018-09-30T12:14:10.517Z,21.81
2018-09-30T12:15:17.805Z,22.59
2018-09-30T12:16:28.529Z,23.61
2018-09-30T12:17:33.830Z,24.41
2018-09-30T12:18:40.327Z,24.24
2018-09-30T12:19:53.762Z,24.07
2018-09-30T12:21:00.561Z,24.23
2018-09-30T12:22:05.825Z,23.33
2018-09-30T12:23:11.888Z,21.17
2018-09-30T12:24:16.682Z,20.89
2018-09-30T12:25:25.029Z,20.42
2018-09-30T12:26:30.749Z,19.62
2018-09-30T12:27:37.055Z,19.32
2018-09-30T12:28:41.607Z,20.06
2018-09-30T12:29:47.512Z,20.27
2018-09-30T12:30:54.679Z,20.12
2018-09-30T12:32:00.398Z,20.82
2018-09-30T12:33:06.843Z,21.70
2018-09-30T12:34:13.253Z,22.17
2018-09-30T12:35:17.656Z,21.74
2018-09-30T12:36:22.921Z,20.94
2018-09-30T12:37:28.844Z,20.89
2018-09-30T12:38:34.066Z,20.79
2018-09-30T12:39:38.494Z,20.95
2018-09-30T12:40:42.972Z,20.80
2018-09-30T12:41:47.890Z,20.65
2018-09-30T12:42:53.411Z,20.42
2018-09-30T12:43:58.152Z,20.52
2018-09-30T12:45:03.581Z,20.73
2018-09-30T12:46:08.842Z,20.96
2018-09-30T12:47:14.413Z,21.46
2018-09-30T12:48:19.645Z,21.14
2018-09-30T12:49:24.063Z,20.07
2018-09-30T12:50:29.933Z,20.22
2018-09-30T12:51:36.480Z,21.11
2018-09-30T12:52:41.667Z,21.96
2018-09-30T12:53:47.628Z,22.48
2018-09-30T12:54:52.060Z,23.36
2018-09-30T12:55:56.445Z,23.47
2018-09-30T12:57:01.337Z,23.83
2018-09-30T12:58:05.824Z,24.30
2018-09-30T12:59:10.861Z,23.98
2018-09-30T13:00:15.874Z,23.43
2018-09-30T13:01:20.353Z,22.96
2018-09-30T13:02:24.865Z,22.69
2018-09-30T13:03:30.087Z,22.13
2018-09-30T13:04:35.182Z,21.41
2018-09-30T13:05:40.156Z,21.32
2018-09-30T13:06:45.927Z,21.46
2018-09-30T13:07:51.752Z,21.66
2018-09-30T13:08:58.065Z,21.31
2018-09-30T13:10:02.519Z,20.85
2018-09-30T13:11:06.969Z,20.54
2018-09-30T13:12:13.538Z,20.17
2018-09-30T13:13:18.894Z,20.41
2018-09-30T13:14:23.704Z,20.88
2018-09-30T13:15:32.422Z,21.59
2018-09-30T13:16:36.895Z,22.03
2018-09-30T13:17:41.352Z,22.82
2018-09-30T13:18:45.812Z,23.27
2018-09-30T13:19:51.059Z,23.46
2018-09-30T13:20:56.153Z,23.82
2018-09-30T13:22:01.027Z,23.73
2018-09-30T13:23:05.782Z,23.14
2018-09-30T13:24:10.205Z,23.33
2018-09-30T13:25:14.652Z,23.14
2018-09-30T13:26:19.985Z,22.09
2018-09-30T13:27:24.555Z,21.44
2018-09-30T13:28:29.355Z,21.19
2018-09-30T13:29:33.776Z,20.60
2018-09-30T13:30:38.994Z,20.96
2018-09-30T13:31:43.417Z,21.52
2018-09-30T13:32:48.086Z,22.55
2018-09-30T13:33:53.030Z,23.41
2018-09-30T13:34:58.166Z,24.19
2018-09-30T13:36:03.810Z,24.70
2018-09-30T13:37:08.487Z,25.02
2018-09-30T13:38:13.134Z,24.41
2018-09-30T13:39:18.243Z,24.22
2018-09-30T13:40:24.360Z,23.78
2018-09-30T13:41:30.235Z,23.43
2018-09-30T13:42:34.938Z,23.35
2018-09-30T13:43:39.665Z,23.02
2018-09-30T13:44:44.545Z,22.67
2018-09-30T13:45:49.433Z,22.99
2018-09-30T13:46:54.098Z,23.85
2018-09-30T13:47:59.123Z,23.34
2018-09-30T13:49:03.992Z,22.60
2018-09-30T13:50:09.026Z,22.13
2018-09-30T13:51:13.838Z,22.19
2018-09-30T13:52:19.600Z,22.34
2018-09-30T13:53:24.708Z,21.81
2018-09-30T13:54:29.792Z,21.77
2018-09-30T13:55:36.098Z,21.68
2018-09-30T13:56:40.643Z,21.21
2018-09-30T13:57:45.480Z,20.84
2018-09-30T13:58:51.838Z,21.04
2018-09-30T13:59:56.519Z,20.66
2018-09-30T14:01:03.154Z,20.69
2018-09-30T14:02:07.988Z,21.46
2018-09-30T14:03:13.078Z,22.34
2018-09-30T14:04:18.558Z,22.22
2018-09-30T14:05:23.771Z,22.89
2018-09-30T14:06:29.069Z,22.84
2018-09-30T14:07:36.955Z,22.49
2018-09-30T14:08:43.255Z,22.91
2018-09-30T14:09:47.741Z,23.20
2018-09-30T14:10:53.259Z,22.89
2018-09-30T14:11:59.276Z,23.07
2018-09-30T14:13:03.841Z,22.39
2018-09-30T14:14:09.351Z,22.54
2018-09-30T14:15:20.521Z,23.56
2018-09-30T14:16:25.105Z,22.93
2018-09-30T14:17:29.849Z,21.58
2018-09-30T14:18:34.901Z,21.61
2018-09-30T14:19:39.780Z,22.43
2018-09-30T14:20:46.496Z,23.07
2018-09-30T14:21:51.450Z,23.72
2018-09-30T14:22:56.702Z,24.13
2018-09-30T14:24:01.120Z,24.67
2018-09-30T14:25:06.133Z,22.50
2018-09-30T14:26:12.504Z,23.58
2018-09-30T14:27:17.054Z,23.96
2018-09-30T14:28:22.268Z,24.43
2018-09-30T14:29:28.315Z,25.07
2018-09-30T14:30:32.981Z,25.82
2018-09-30T14:31:38.215Z,26.09
2018-09-30T14:32:43.903Z,25.08
2018-09-30T14:33:48.515Z,23.26
2018-09-30T14:34:53.155Z,22.76
2018-09-30T14:35:58.690Z,23.06
2018-09-30T14:37:03.372Z,22.99
2018-09-30T14:38:08.507Z,22.83
2018-09-30T14:39:14.536Z,22.21